Time;durP1;ratioP1;P1;durP2;ratioP2;P2;SDS_P1;SDS_P2;PMS_P1;PMS_P2;Temp;Humidity;BMP_temperature;BMP_pressure;BME280_temperature;BME280_humidity;BME280_pressure;Samples;Min_cycle;Max_cycle;Signal;HPM_P1;HPM_P2
2023/01/30 00:01:33;;;;;;;25.35;10.27;;;7.60;99.90;;;;;;5029353;28;20445;-40
2023/01/30 00:03:59;;;;;;;24.83;9.65;;;7.60;99.90;;;;;;5031772;28;20370;-38
2023/01/30 00:06:25;;;;;;;18.08;9.27;;;7.60;99.90;;;;;;5025041;28;20033;-35
2023/01/30 00:08:51;;;;;;;25.38;9.10;;;7.60;99.90;;;;;;5031022;28;20033;-39
2023/01/30 00:11:20;;;;;;;26.25;9.90;;;7.70;99.90;;;;;;5028819;28;20065;-34
2023/01/30 00:13:48;;;;;;;25.08;10.65;;;7.70;99.90;;;;;;5018180;28;20490;-39
2023/01/30 00:16:13;;;;;;;19.98;9.82;;;7.80;99.90;;;;;;5028098;28;21409;-36
2023/01/30 00:18:40;;;;;;;19.85;9.57;;;7.80;99.90;;;;;;5017889;28;20026;-38
2023/01/30 00:21:08;;;;;;;16.90;9.80;;;7.80;99.90;;;;;;5018314;28;20474;-38
2023/01/30 00:23:36;;;;;;;21.98;8.45;;;7.70;99.90;;;;;;5026283;28;20036;-39
2023/01/30 00:26:02;;;;;;;17.13;9.00;;;7.70;99.90;;;;;;5029449;28;20080;-41
2023/01/30 00:31:12;;;;;;;23.80;10.00;;;7.80;99.90;;;;;;5026543;28;20119;-37
2023/01/30 00:33:38;;;;;;;17.08;8.40;;;7.80;99.90;;;;;;5022877;28;20083;-35
2023/01/30 00:36:04;;;;;;;18.67;8.82;;;7.80;99.90;;;;;;5029868;28;20044;-39
2023/01/30 00:38:30;;;;;;;14.90;7.78;;;7.80;99.90;;;;;;5028103;28;20399;-36
2023/01/30 00:40:55;;;;;;;19.58;7.90;;;7.90;99.90;;;;;;5020670;28;20026;-39
2023/01/30 00:49:13;;;;;;;11.82;6.50;;;7.90;99.90;;;;;;5027461;28;20121;-38
2023/01/30 00:51:38;;;;;;;16.40;8.43;;;7.90;99.90;;;;;;5032905;28;20029;-37
2023/01/30 00:54:04;;;;;;;16.55;6.78;;;7.90;99.90;;;;;;5032807;28;20367;-39
2023/01/30 00:56:30;;;;;;;15.32;5.93;;;7.90;99.90;;;;;;5023708;28;20129;-36
2023/01/30 00:58:55;;;;;;;20.15;6.93;;;7.90;99.90;;;;;;5030691;28;20072;-39
2023/01/30 01:01:21;;;;;;;12.65;5.43;;;8.00;99.90;;;;;;5032535;28;20053;-37
2023/01/30 01:03:46;;;;;;;10.13;4.80;;;8.00;99.90;;;;;;5032699;28;20489;-37
2023/01/30 01:06:12;;;;;;;13.85;5.38;;;8.10;99.90;;;;;;5031652;28;20064;-38
2023/01/30 01:08:38;;;;;;;11.80;4.72;;;8.10;99.90;;;;;;5019861;28;20411;-39
2023/01/30 01:11:04;;;;;;;13.25;4.55;;;8.20;99.90;;;;;;5031202;28;20034;-39
2023/01/30 01:13:29;;;;;;;9.52;3.70;;;8.30;99.90;;;;;;5030476;28;20226;-39
2023/01/30 01:15:55;;;;;;;6.82;3.85;;;8.30;99.90;;;;;;5031284;28;20069;-38
2023/01/30 01:18:20;;;;;;;7.57;4.13;;;8.40;99.90;;;;;;5030998;28;20026;-38
2023/01/30 01:20:46;;;;;;;10.80;4.45;;;8.40;99.90;;;;;;5028944;28;20389;-36
2023/01/30 01:23:12;;;;;;;16.23;3.47;;;8.40;99.90;;;;;;5015243;28;20076;-36
2023/01/30 01:25:37;;;;;;;13.43;4.38;;;8.40;99.90;;;;;;5036610;28;20060;-37
2023/01/30 01:28:03;;;;;;;13.45;4.25;;;8.40;99.90;;;;;;5036545;28;20024;-38
2023/01/30 01:30:29;;;;;;;13.75;3.92;;;8.40;99.90;;;;;;5033645;28;20078;-38
2023/01/30 01:32:56;;;;;;;11.15;4.20;;;8.50;99.90;;;;;;5023222;28;20018;-36
2023/01/30 01:35:21;;;;;;;23.67;4.97;;;8.50;99.90;;;;;;5029694;28;20026;-36
2023/01/30 01:37:47;;;;;;;13.85;4.32;;;8.50;99.90;;;;;;5029808;28;20545;-40
2023/01/30 01:43:14;;;;;;;11.68;3.88;;;8.50;99.90;;;;;;5036343;28;20520;-38
2023/01/30 01:45:40;;;;;;;7.75;3.45;;;8.40;99.90;;;;;;5032822;28;20496;-40
2023/01/30 01:48:19;;;;;;;10.20;3.72;;;8.40;99.90;;;;;;5034593;28;20033;-40
2023/01/30 01:50:53;;;;;;;12.18;4.10;;;8.50;99.90;;;;;;5035905;28;20481;-39
2023/01/30 01:53:24;;;;;;;10.82;3.50;;;8.50;99.90;;;;;;5034697;28;20033;-37
2023/01/30 01:55:55;;;;;;;15.50;3.88;;;8.50;99.90;;;;;;5021391;28;20548;-39
2023/01/30 01:58:34;;;;;;;8.43;3.33;;;8.40;99.90;;;;;;5027016;28;20025;-38
2023/01/30 02:03:51;;;;;;;8.07;3.03;;;8.40;99.90;;;;;;5030810;28;20477;-37
2023/01/30 02:06:17;;;;;;;14.05;3.75;;;8.30;99.90;;;;;;5032350;28;20029;-40
2023/01/30 02:08:57;;;;;;;12.80;3.92;;;8.30;99.90;;;;;;5034397;28;20033;-38
2023/01/30 02:11:45;;;;;;;15.38;3.33;;;8.20;99.90;;;;;;5015852;28;20032;-39
2023/01/30 02:14:11;;;;;;;12.77;3.33;;;8.20;99.90;;;;;;5018248;28;20559;-38
2023/01/30 02:16:37;;;;;;;8.02;3.30;;;8.10;99.90;;;;;;5016943;28;20026;-39
2023/01/30 02:19:15;;;;;;;11.63;3.53;;;8.10;99.90;;;;;;5025096;28;20413;-41
2023/01/30 02:22:05;;;;;;;11.65;3.65;;;8.00;99.90;;;;;;5019202;28;20141;-40
2023/01/30 02:24:44;;;;;;;10.70;3.08;;;8.00;99.90;;;;;;5032464;28;20029;-41
2023/01/30 02:27:15;;;;;;;10.80;3.22;;;8.00;99.90;;;;;;5015942;28;20088;-39
2023/01/30 02:30:07;;;;;;;12.90;3.10;;;7.90;99.90;;;;;;5031750;28;20030;-39
2023/01/30 02:32:54;;;;;;;22.00;3.67;;;7.90;99.90;;;;;;5035238;28;20040;-38
2023/01/30 02:35:41;;;;;;;10.50;2.77;;;7.90;99.90;;;;;;5018347;28;20581;-38
2023/01/30 02:38:45;;;;;;;7.07;2.60;;;7.80;99.90;;;;;;5015537;28;20482;-40
2023/01/30 02:41:34;;;;;;;10.13;2.97;;;7.90;99.90;;;;;;5017371;28;20379;-37
2023/01/30 02:44:15;;;;;;;3.42;1.92;;;7.90;99.90;;;;;;5015404;28;20030;-40
2023/01/30 02:46:54;;;;;;;12.07;2.53;;;8.00;99.90;;;;;;5019617;28;20101;-36
2023/01/30 02:49:27;;;;;;;10.23;3.58;;;7.90;99.90;;;;;;5025882;28;20076;-39
2023/01/30 02:51:56;;;;;;;17.35;3.70;;;7.90;99.90;;;;;;5033310;28;20382;-38
2023/01/30 02:54:22;;;;;;;14.90;3.72;;;7.80;99.90;;;;;;5033496;28;20075;-39
2023/01/30 02:56:51;;;;;;;10.38;3.50;;;7.80;99.90;;;;;;5025577;28;20022;-40
2023/01/30 02:59:26;;;;;;;23.38;3.53;;;7.80;99.90;;;;;;5023416;28;20378;-38
2023/01/30 03:02:16;;;;;;;12.93;2.67;;;7.80;99.90;;;;;;5018558;28;20073;-37
2023/01/30 03:05:01;;;;;;;10.70;3.55;;;7.80;99.90;;;;;;5014972;28;20121;-37
2023/01/30 03:07:41;;;;;;;9.70;2.80;;;7.80;99.90;;;;;;5031635;28;20072;-38
2023/01/30 03:10:38;;;;;;;10.50;2.90;;;7.80;99.90;;;;;;5031042;28;20482;-40
2023/01/30 03:13:39;;;;;;;12.82;3.15;;;7.90;99.90;;;;;;5016819;28;20041;-35
2023/01/30 03:16:34;;;;;;;8.93;3.70;;;7.90;99.90;;;;;;5034856;28;20474;-37
2023/01/30 03:19:01;;;;;;;11.55;3.17;;;7.90;99.90;;;;;;5033291;28;20576;-39
2023/01/30 03:21:27;;;;;;;11.93;2.45;;;7.90;99.90;;;;;;5021066;28;20490;-36
2023/01/30 03:23:52;;;;;;;10.40;3.58;;;7.90;99.90;;;;;;5022520;28;20057;-38
2023/01/30 03:26:23;;;;;;;7.88;3.15;;;7.90;99.90;;;;;;5020087;28;20025;-36
2023/01/30 03:28:50;;;;;;;12.73;3.25;;;8.00;99.90;;;;;;5034358;28;20029;-37
2023/01/30 03:31:15;;;;;;;9.52;2.83;;;8.00;99.90;;;;;;5023211;28;20030;-38
2023/01/30 03:33:41;;;;;;;13.63;2.30;;;7.90;99.90;;;;;;5028492;28;20115;-37
2023/01/30 03:36:08;;;;;;;17.38;2.80;;;7.90;99.90;;;;;;5031252;28;20053;-38
2023/01/30 03:38:34;;;;;;;10.57;2.83;;;7.90;99.90;;;;;;5025554;28;20032;-38
2023/01/30 03:41:01;;;;;;;9.20;2.67;;;7.90;99.90;;;;;;5028564;28;20739;-41
2023/01/30 03:43:27;;;;;;;11.48;2.63;;;7.90;99.90;;;;;;5030747;28;20523;-41
2023/01/30 03:45:52;;;;;;;6.90;2.75;;;8.00;99.90;;;;;;5022769;28;20030;-35
2023/01/30 03:48:18;;;;;;;9.75;2.33;;;8.00;99.90;;;;;;5022729;28;20394;-39
2023/01/30 03:50:44;;;;;;;11.15;2.80;;;8.00;99.90;;;;;;5014124;28;20085;-39
2023/01/30 03:53:09;;;;;;;20.65;2.30;;;8.10;99.90;;;;;;5025707;28;20486;-39
2023/01/30 03:55:35;;;;;;;10.15;2.38;;;8.10;99.90;;;;;;5034006;28;20559;-38
2023/01/30 03:58:01;;;;;;;6.90;1.73;;;8.20;99.90;;;;;;5032447;28;20382;-35
2023/01/30 04:00:26;;;;;;;8.48;2.10;;;8.20;99.90;;;;;;5030771;28;20025;-40
2023/01/30 04:02:53;;;;;;;18.40;3.10;;;8.20;99.90;;;;;;5032111;28;20068;-38
2023/01/30 04:05:19;;;;;;;9.75;2.05;;;8.20;99.90;;;;;;5032353;28;20557;-38
2023/01/30 04:07:45;;;;;;;8.93;2.15;;;8.20;99.90;;;;;;5027132;28;20101;-38
2023/01/30 04:10:14;;;;;;;9.18;2.40;;;8.20;99.90;;;;;;5031499;28;20486;-39
2023/01/30 04:12:41;;;;;;;7.55;2.60;;;8.20;99.90;;;;;;5024746;28;20033;-40
2023/01/30 04:15:07;;;;;;;12.87;2.57;;;8.30;99.90;;;;;;5033308;28;20061;-39
2023/01/30 04:17:33;;;;;;;8.43;1.55;;;8.30;99.90;;;;;;5023974;28;20292;-37
2023/01/30 04:19:59;;;;;;;7.13;2.00;;;8.30;99.90;;;;;;5013859;28;20394;-38
2023/01/30 04:22:24;;;;;;;8.93;2.30;;;8.30;99.90;;;;;;5013610;28;20029;-40
2023/01/30 04:24:50;;;;;;;13.38;2.88;;;8.20;99.90;;;;;;5016523;28;20036;-39
2023/01/30 04:27:15;;;;;;;8.35;1.65;;;8.20;99.90;;;;;;5026033;28;20446;-36
2023/01/30 04:29:41;;;;;;;10.55;2.40;;;8.20;99.90;;;;;;5013449;28;20030;-39
2023/01/30 04:32:07;;;;;;;11.63;1.80;;;8.20;99.90;;;;;;5023309;28;20493;-38
2023/01/30 04:34:32;;;;;;;12.90;2.17;;;8.20;99.90;;;;;;5013244;28;20029;-40
2023/01/30 04:36:58;;;;;;;12.80;2.38;;;8.20;99.90;;;;;;5013591;28;20037;-41
2023/01/30 04:39:24;;;;;;;10.93;2.50;;;8.20;99.90;;;;;;5024673;28;20112;-38
2023/01/30 04:41:50;;;;;;;11.88;2.17;;;8.20;99.90;;;;;;5013351;28;20088;-36
2023/01/30 04:44:15;;;;;;;10.55;2.75;;;8.20;99.90;;;;;;5014321;28;20026;-39
2023/01/30 04:46:41;;;;;;;23.17;2.53;;;8.20;99.90;;;;;;5022689;28;20045;-38
2023/01/30 04:49:09;;;;;;;11.95;1.90;;;8.10;99.90;;;;;;5029397;28;20104;-39
2023/01/30 04:51:34;;;;;;;7.40;2.42;;;8.00;99.90;;;;;;5032948;28;20108;-39
2023/01/30 04:54:00;;;;;;;2.63;1.25;;;8.10;99.90;;;;;;5018136;28;20108;-39
2023/01/30 04:56:26;;;;;;;9.55;1.52;;;8.00;99.90;;;;;;5032896;28;20033;-41
2023/01/30 04:58:51;;;;;;;6.80;1.70;;;8.00;99.90;;;;;;5030622;28;20386;-42
2023/01/30 05:01:37;;;;;;;4.90;1.50;;;8.10;99.90;;;;;;5028568;28;20560;-40
2023/01/30 05:04:04;;;;;;;6.95;1.77;;;8.10;99.90;;;;;;5030080;28;20052;-39
2023/01/30 05:06:31;;;;;;;6.22;2.10;;;8.10;99.90;;;;;;5030559;28;20464;-42
2023/01/30 05:08:57;;;;;;;3.30;1.33;;;8.20;99.90;;;;;;5029894;28;20029;-41
2023/01/30 05:11:25;;;;;;;6.05;2.55;;;8.20;99.90;;;;;;5025934;28;20545;-39
2023/01/30 05:13:51;;;;;;;6.15;1.08;;;8.20;99.90;;;;;;5031525;28;20036;-38
2023/01/30 05:16:18;;;;;;;4.20;1.80;;;8.20;99.90;;;;;;5031626;28;20029;-39
2023/01/30 05:18:44;;;;;;;6.82;1.70;;;8.20;99.90;;;;;;5023661;28;20025;-38
2023/01/30 05:21:13;;;;;;;7.35;1.42;;;8.20;99.90;;;;;;5026784;28;20086;-40
2023/01/30 05:23:39;;;;;;;5.55;1.48;;;8.10;99.90;;;;;;5022114;28;20021;-41
2023/01/30 05:26:05;;;;;;;12.23;2.00;;;8.10;99.90;;;;;;5029229;28;20466;-40
2023/01/30 05:28:31;;;;;;;7.95;2.00;;;8.00;99.90;;;;;;5025223;28;20029;-41
2023/01/30 05:31:01;;;;;;;8.15;1.90;;;8.10;99.90;;;;;;5030031;28;20056;-41
2023/01/30 05:33:27;;;;;;;6.55;1.83;;;8.00;99.90;;;;;;5032476;28;20021;-38
2023/01/30 05:35:53;;;;;;;17.30;1.95;;;8.00;99.90;;;;;;5027924;28;20029;-41
2023/01/30 05:38:18;;;;;;;9.63;1.75;;;7.90;99.90;;;;;;5022485;28;20065;-41
2023/01/30 05:40:44;;;;;;;13.80;2.00;;;7.80;99.90;;;;;;5025304;28;20509;-38
2023/01/30 05:43:10;;;;;;;9.98;1.88;;;7.70;99.90;;;;;;5019357;28;20576;-39
2023/01/30 05:45:36;;;;;;;12.13;1.85;;;7.70;99.90;;;;;;5028617;28;20036;-39
2023/01/30 05:48:02;;;;;;;12.50;2.05;;;7.70;99.90;;;;;;5025887;28;20022;-39
2023/01/30 05:50:28;;;;;;;9.90;2.28;;;7.60;99.90;;;;;;5030603;28;20029;-38
2023/01/30 05:52:54;;;;;;;18.45;2.25;;;7.50;99.90;;;;;;5028554;28;20470;-40
2023/01/30 05:55:19;;;;;;;13.48;2.53;;;7.50;99.90;;;;;;5027695;28;20037;-40
2023/01/30 05:57:45;;;;;;;14.00;2.50;;;7.40;99.90;;;;;;5026291;28;20471;-41
2023/01/30 06:00:11;;;;;;;22.85;3.08;;;7.40;99.90;;;;;;5029446;28;20033;-38
2023/01/30 06:02:37;;;;;;;10.98;2.33;;;7.40;99.90;;;;;;5025459;28;20057;-39
2023/01/30 06:05:02;;;;;;;16.40;3.20;;;7.30;99.90;;;;;;5020334;28;20026;-40
2023/01/30 06:07:28;;;;;;;14.05;2.47;;;7.30;99.90;;;;;;5028343;28;20371;-38
2023/01/30 06:09:53;;;;;;;14.85;2.08;;;7.20;99.90;;;;;;5031287;28;20028;-41
2023/01/30 06:12:19;;;;;;;16.52;1.73;;;7.20;99.90;;;;;;5033234;28;20545;-39
2023/01/30 06:14:45;;;;;;;19.35;1.85;;;7.20;99.90;;;;;;5028787;28;20030;-41
2023/01/30 06:17:10;;;;;;;20.95;2.50;;;7.10;99.90;;;;;;5032037;28;20041;-35
2023/01/30 06:19:36;;;;;;;13.65;2.67;;;7.10;99.90;;;;;;5024340;28;20028;-41
2023/01/30 06:22:02;;;;;;;17.77;2.90;;;7.10;99.90;;;;;;5032169;28;20405;-37
2023/01/30 06:24:27;;;;;;;8.60;1.35;;;7.00;99.90;;;;;;5035811;28;20079;-39
2023/01/30 06:26:53;;;;;;;14.57;2.78;;;7.00;99.90;;;;;;5035469;28;20017;-37
2023/01/30 06:29:19;;;;;;;18.42;2.60;;;7.00;99.90;;;;;;5021051;28;20023;-36
2023/01/30 06:31:45;;;;;;;23.05;3.05;;;6.90;99.90;;;;;;5030826;28;20014;-39
2023/01/30 06:34:10;;;;;;;28.30;2.47;;;7.00;99.90;;;;;;5024956;28;20025;-38
2023/01/30 06:36:36;;;;;;;23.42;3.50;;;7.00;99.90;;;;;;5035595;28;20493;-34
2023/01/30 06:39:02;;;;;;;21.52;2.72;;;7.00;99.90;;;;;;5031510;28;20034;-36
2023/01/30 06:41:28;;;;;;;13.35;2.25;;;7.00;99.90;;;;;;5024896;28;20065;-40
2023/01/30 06:43:54;;;;;;;24.60;3.97;;;6.90;99.90;;;;;;5034675;28;20022;-38
2023/01/30 06:46:20;;;;;;;16.92;2.58;;;6.80;99.90;;;;;;5034892;28;20061;-38
2023/01/30 06:48:45;;;;;;;18.17;2.42;;;6.80;99.90;;;;;;5032764;28;20049;-38
2023/01/30 06:51:11;;;;;;;15.82;2.05;;;6.70;99.90;;;;;;5034991;28;20028;-37
2023/01/30 06:53:37;;;;;;;10.98;1.98;;;6.70;99.90;;;;;;5033324;28;20535;-39
2023/01/30 06:56:03;;;;;;;16.90;2.92;;;6.80;99.90;;;;;;5034956;28;20037;-36
2023/01/30 06:58:28;;;;;;;18.98;2.28;;;6.80;99.90;;;;;;5019339;28;20495;-40
2023/01/30 07:00:54;;;;;;;14.77;2.75;;;6.80;99.90;;;;;;5021203;28;20390;-39
2023/01/30 07:03:20;;;;;;;20.95;3.08;;;6.70;99.90;;;;;;5023469;28;20055;-36
2023/01/30 07:05:47;;;;;;;14.13;2.58;;;6.70;99.90;;;;;;5034062;28;20028;-38
2023/01/30 07:08:13;;;;;;;20.45;3.03;;;6.70;99.90;;;;;;5022144;28;20111;-35
2023/01/30 07:10:40;;;;;;;15.63;1.98;;;6.70;99.90;;;;;;5032068;28;20022;-37
2023/01/30 07:13:06;;;;;;;16.65;3.78;;;6.70;99.90;;;;;;5034841;28;20466;-34
2023/01/30 07:15:32;;;;;;;17.02;2.33;;;6.70;99.90;;;;;;5034558;28;20021;-40
2023/01/30 07:17:58;;;;;;;17.08;2.80;;;6.60;99.90;;;;;;5029790;28;20037;-39
2023/01/30 07:20:23;;;;;;;20.73;2.25;;;6.60;99.90;;;;;;5029674;28;20394;-40
2023/01/30 07:22:53;;;;;;;17.52;2.63;;;6.70;99.90;;;;;;5021061;28;20025;-41
2023/01/30 07:25:21;;;;;;;14.77;2.63;;;6.60;99.90;;;;;;5018969;28;20026;-38
2023/01/30 07:27:55;;;;;;;12.07;2.15;;;6.60;99.90;;;;;;5029049;28;20013;-38
2023/01/30 07:30:21;;;;;;;8.65;1.73;;;6.60;99.90;;;;;;5014546;28;20394;-36
2023/01/30 07:32:54;;;;;;;14.52;2.67;;;6.70;99.90;;;;;;5028157;28;20021;-40
2023/01/30 07:35:21;;;;;;;16.08;2.33;;;6.70;99.90;;;;;;5028646;28;20567;-36
2023/01/30 07:37:48;;;;;;;18.63;2.38;;;6.70;99.90;;;;;;5027610;28;20394;-38
2023/01/30 07:40:14;;;;;;;17.42;2.67;;;6.70;99.90;;;;;;5024784;28;20500;-37
2023/01/30 07:42:40;;;;;;;17.95;2.10;;;6.70;99.90;;;;;;5028340;28;20022;-39
2023/01/30 07:45:07;;;;;;;20.98;2.60;;;6.60;99.90;;;;;;5028655;28;20025;-35
2023/01/30 07:47:32;;;;;;;19.60;3.22;;;6.60;99.90;;;;;;5030213;28;20536;-39
2023/01/30 07:49:58;;;;;;;14.60;2.25;;;6.60;99.90;;;;;;5033910;28;20060;-40
2023/01/30 07:52:24;;;;;;;25.13;2.17;;;6.70;99.90;;;;;;5033818;28;20025;-40
2023/01/30 07:54:49;;;;;;;15.23;3.17;;;6.70;99.90;;;;;;5021785;28;20030;-39
2023/01/30 07:57:15;;;;;;;30.95;2.58;;;6.70;99.90;;;;;;5027808;28;20040;-43
2023/01/30 07:59:41;;;;;;;20.75;2.30;;;6.70;99.90;;;;;;5026860;28;20386;-40
2023/01/30 08:02:09;;;;;;;11.85;2.78;;;6.70;99.90;;;;;;5020127;28;20041;-41
2023/01/30 08:04:34;;;;;;;29.60;2.42;;;6.80;99.90;;;;;;5030250;28;20390;-40
2023/01/30 08:07:18;;;;;;;23.13;2.45;;;6.80;99.90;;;;;;5028026;28;20026;-43
2023/01/30 08:09:44;;;;;;;18.73;2.92;;;6.80;99.90;;;;;;5026717;28;20063;-37
2023/01/30 08:12:10;;;;;;;25.98;2.58;;;6.80;99.90;;;;;;5028567;28;20112;-41
2023/01/30 08:14:35;;;;;;;14.02;1.63;;;6.80;99.90;;;;;;5030782;28;20036;-40
2023/01/30 08:17:01;;;;;;;9.73;2.00;;;6.80;99.90;;;;;;5030576;28;20021;-41
2023/01/30 08:19:26;;;;;;;10.82;2.45;;;6.90;99.90;;;;;;5026374;28;20017;-38
2023/01/30 08:21:52;;;;;;;14.25;2.25;;;7.00;99.90;;;;;;5026365;28;20430;-39
2023/01/30 08:24:18;;;;;;;23.50;2.55;;;7.00;99.90;;;;;;5026736;28;20029;-42
2023/01/30 08:26:43;;;;;;;17.45;2.17;;;7.20;99.90;;;;;;5024967;28;20021;-40
2023/01/30 08:29:09;;;;;;;15.55;2.03;;;7.30;99.90;;;;;;5026131;28;20061;-41
2023/01/30 08:31:35;;;;;;;20.95;2.90;;;7.20;99.90;;;;;;5024613;28;20517;-39
2023/01/30 08:34:00;;;;;;;9.30;1.77;;;7.20;99.90;;;;;;5032356;28;20037;-39
2023/01/30 08:36:26;;;;;;;24.83;2.67;;;7.30;99.90;;;;;;5024201;28;20393;-39
2023/01/30 08:38:52;;;;;;;13.65;1.60;;;7.30;99.90;;;;;;5023076;28;20037;-38
2023/01/30 08:41:17;;;;;;;17.08;1.90;;;7.40;99.90;;;;;;5014409;28;20150;-42
2023/01/30 08:43:43;;;;;;;12.30;1.48;;;7.40;99.90;;;;;;5026624;28;20560;-41
2023/01/30 08:46:09;;;;;;;12.82;2.30;;;7.50;99.90;;;;;;5028669;28;20022;-39
2023/01/30 08:48:36;;;;;;;13.00;2.08;;;7.50;99.90;;;;;;5024644;28;20474;-39
2023/01/30 08:51:02;;;;;;;11.45;2.35;;;7.50;99.90;;;;;;5015924;28;20022;-41
2023/01/30 08:53:27;;;;;;;16.92;2.30;;;7.50;99.90;;;;;;5022841;28;20075;-40
2023/01/30 08:55:53;;;;;;;12.63;1.95;;;7.50;99.90;;;;;;5028404;28;20064;-40
2023/01/30 08:58:20;;;;;;;15.32;1.83;;;7.50;99.90;;;;;;5019397;28;20124;-39
2023/01/30 09:00:46;;;;;;;14.05;2.33;;;7.40;99.90;;;;;;5029627;28;20021;-40
2023/01/30 09:03:16;;;;;;;21.17;2.72;;;7.50;99.90;;;;;;5029252;28;20510;-37
2023/01/30 09:05:42;;;;;;;15.07;2.47;;;7.50;99.90;;;;;;5024821;28;20462;-35
2023/01/30 09:08:08;;;;;;;23.38;2.88;;;7.50;99.90;;;;;;5028616;28;20083;-38
2023/01/30 09:10:52;;;;;;;14.90;1.58;;;7.50;99.90;;;;;;5023154;28;20033;-38
2023/01/30 09:13:18;;;;;;;18.33;2.20;;;7.50;99.90;;;;;;5018353;28;20071;-38
2023/01/30 09:15:44;;;;;;;18.27;2.28;;;7.60;99.90;;;;;;5031138;28;20065;-41
2023/01/30 09:18:10;;;;;;;15.15;2.08;;;7.60;99.90;;;;;;5031448;28;20064;-37
2023/01/30 09:20:35;;;;;;;23.35;3.08;;;7.70;99.90;;;;;;5030774;28;20508;-38
2023/01/30 09:23:01;;;;;;;11.98;2.42;;;7.70;99.90;;;;;;5018502;28;20097;-40
2023/01/30 09:25:27;;;;;;;24.15;2.03;;;7.70;99.90;;;;;;5030686;28;20041;-38
2023/01/30 09:27:52;;;;;;;13.88;2.22;;;7.70;99.90;;;;;;5028183;28;20013;-40
2023/01/30 09:30:18;;;;;;;15.88;2.22;;;7.70;99.90;;;;;;5016641;28;20030;-35
2023/01/30 09:32:44;;;;;;;15.90;2.13;;;7.70;99.90;;;;;;5014583;28;20122;-43
2023/01/30 09:35:10;;;;;;;17.33;2.03;;;7.70;99.90;;;;;;5030690;28;20490;-38
2023/01/30 09:37:36;;;;;;;22.60;2.05;;;7.60;99.90;;;;;;5014036;28;20033;-40
2023/01/30 09:40:02;;;;;;;10.95;1.92;;;7.70;99.90;;;;;;5027110;28;20501;-39
2023/01/30 09:42:44;;;;;;;14.35;1.90;;;7.70;99.90;;;;;;5017634;28;20026;-36
2023/01/30 09:45:25;;;;;;;17.33;2.75;;;7.70;99.90;;;;;;5020406;28;20088;-37
2023/01/30 09:47:54;;;;;;;24.73;2.70;;;7.80;99.90;;;;;;5027046;28;20017;-35
2023/01/30 09:50:45;;;;;;;10.20;2.17;;;7.90;99.90;;;;;;5032213;28;20060;-41
2023/01/30 09:53:42;;;;;;;15.13;2.55;;;7.90;99.90;;;;;;5027926;28;20036;-39
2023/01/30 09:56:08;;;;;;;16.60;2.00;;;7.90;99.90;;;;;;5033005;28;20477;-42
2023/01/30 09:58:46;;;;;;;22.48;2.40;;;7.90;99.90;;;;;;5021321;28;20034;-43
2023/01/30 10:01:53;;;;;;;18.17;2.53;;;7.90;99.90;;;;;;5024042;28;20041;-46
2023/01/30 10:04:34;;;;;;;10.50;1.88;;;7.90;99.90;;;;;;5036015;28;20435;-44
2023/01/30 10:07:09;;;;;;;12.48;1.95;;;7.90;99.90;;;;;;5036143;28;20025;-41
2023/01/30 10:09:48;;;;;;;14.77;1.35;;;7.80;99.90;;;;;;5025730;28;20026;-42
2023/01/30 10:12:49;;;;;;;18.02;1.77;;;7.80;99.90;;;;;;5016309;28;20492;-42
2023/01/30 10:15:47;;;;;;;13.23;1.70;;;7.90;99.90;;;;;;5015550;28;20030;-43
2023/01/30 10:18:34;;;;;;;7.85;2.35;;;8.00;99.90;;;;;;5027845;28;20519;-42
2023/01/30 10:21:10;;;;;;;13.18;2.75;;;7.90;99.90;;;;;;5034045;28;20110;-43
2023/01/30 10:24:01;;;;;;;24.50;2.97;;;7.90;99.90;;;;;;5015938;28;20036;-42
2023/01/30 10:26:27;;;;;;;24.98;2.83;;;8.00;99.90;;;;;;5017823;28;20117;-42
2023/01/30 10:29:21;;;;;;;18.33;2.13;;;8.00;99.90;;;;;;5035347;28;20109;-45
2023/01/30 10:31:52;;;;;;;17.45;2.25;;;8.00;99.90;;;;;;5035364;28;20022;-43
2023/01/30 10:34:33;;;;;;;23.13;2.47;;;8.10;99.90;;;;;;5033737;28;20413;-45
2023/01/30 10:37:08;;;;;;;14.80;2.22;;;8.10;99.90;;;;;;5035375;28;20032;-46
2023/01/30 10:40:16;;;;;;;13.82;1.80;;;8.00;99.90;;;;;;5035116;28;20030;-39
2023/01/30 10:43:02;;;;;;;13.65;1.50;;;8.00;99.90;;;;;;5034180;28;20500;-42
2023/01/30 10:45:49;;;;;;;25.38;2.63;;;8.00;99.90;;;;;;5035211;28;20418;-43
2023/01/30 10:48:17;;;;;;;20.92;2.97;;;8.10;99.90;;;;;;5029743;28;20033;-47
2023/01/30 10:50:52;;;;;;;15.35;2.08;;;8.00;99.90;;;;;;5015277;28;20026;-44
2023/01/30 10:53:27;;;;;;;21.08;3.00;;;8.00;99.90;;;;;;5021444;28;20025;-42
2023/01/30 10:56:15;;;;;;;14.35;1.92;;;8.00;99.90;;;;;;5027046;28;20393;-45
2023/01/30 10:58:47;;;;;;;14.18;3.10;;;8.10;99.90;;;;;;5034976;28;20030;-43
2023/01/30 11:01:18;;;;;;;20.60;2.47;;;8.00;99.90;;;;;;5034962;28;20137;-48
2023/01/30 11:04:10;;;;;;;13.82;2.80;;;8.10;99.90;;;;;;5025749;28;20076;-43
2023/01/30 11:06:36;;;;;;;19.92;3.30;;;8.20;99.90;;;;;;5026479;28;20034;-48
2023/01/30 11:09:02;;;;;;;15.52;2.63;;;8.10;99.90;;;;;;5034840;28;20489;-43
2023/01/30 11:11:41;;;;;;;19.98;1.98;;;8.10;99.90;;;;;;5034635;28;20030;-47
2023/01/30 11:14:09;;;;;;;18.52;2.80;;;8.20;99.90;;;;;;5014808;28;20038;-44
2023/01/30 11:16:54;;;;;;;;;;;8.40;99.90;;;;;;5015505;28;20029;-43
2023/01/30 11:19:29;;;;;;;19.75;3.33;;;8.30;99.90;;;;;;5014747;28;19992;-45
2023/01/30 11:22:01;;;;;;;19.48;2.15;;;8.40;99.90;;;;;;5033977;28;20551;-43
2023/01/30 11:24:38;;;;;;;16.15;1.52;;;8.30;99.90;;;;;;5030111;28;20022;-42
2023/01/30 11:27:23;;;;;;;27.52;3.10;;;8.40;99.90;;;;;;5034439;28;20045;-43
2023/01/30 11:29:51;;;;;;;20.90;2.83;;;8.50;99.90;;;;;;5032523;28;20501;-43
2023/01/30 11:32:27;;;;;;;;;;;8.60;99.90;;;;;;5035026;28;20485;-47
2023/01/30 11:35:05;;;;;;;18.08;2.83;;;8.70;99.90;;;;;;5025960;28;20427;-40
2023/01/30 11:37:33;;;;;;;18.15;2.38;;;8.50;99.90;;;;;;5014419;28;20030;-36
2023/01/30 11:40:06;;;;;;;19.98;2.70;;;8.60;99.90;;;;;;5023011;28;20029;-40
2023/01/30 11:42:31;;;;;;;31.85;3.95;;;8.70;99.90;;;;;;5034380;28;20482;-48
2023/01/30 11:44:59;;;;;;;14.95;2.53;;;8.70;99.90;;;;;;5034339;28;20032;-47
2023/01/30 11:47:26;;;;;;;24.67;2.72;;;8.60;99.90;;;;;;5022088;28;20084;-42
2023/01/30 11:49:55;;;;;;;21.05;2.92;;;8.60;99.90;;;;;;5029446;28;20544;-44
2023/01/30 11:52:36;;;;;;;19.08;3.13;;;8.60;99.90;;;;;;5014424;28;20470;-49
2023/01/30 11:55:07;;;;;;;18.92;2.25;;;8.70;99.90;;;;;;5014337;28;20521;-54
2023/01/30 11:58:03;;;;;;;24.25;2.15;;;8.70;99.90;;;;;;5034145;28;20536;-49
2023/01/30 12:00:46;;;;;;;18.23;3.45;;;8.90;99.90;;;;;;5012678;28;20494;-44
2023/01/30 12:03:17;;;;;;;18.45;2.25;;;8.80;99.90;;;;;;5012953;28;20120;-51
2023/01/30 12:05:45;;;;;;;15.82;2.50;;;8.90;99.90;;;;;;5013694;28;20030;-49
2023/01/30 12:08:15;;;;;;;23.08;3.20;;;9.00;99.90;;;;;;5013048;28;20290;-44
2023/01/30 12:10:42;;;;;;;13.02;2.60;;;8.90;99.90;;;;;;5029784;28;20035;-53
2023/01/30 12:13:33;;;;;;;16.27;2.30;;;8.90;99.90;;;;;;5027827;28;20453;-47
2023/01/30 12:16:10;;;;;;;24.00;2.72;;;8.90;99.90;;;;;;5013766;28;20025;-38
2023/01/30 12:19:11;;;;;;;24.58;2.83;;;8.80;99.90;;;;;;5014486;28;20450;-37
2023/01/30 12:21:48;;;;;;;13.52;2.17;;;8.70;99.90;;;;;;5003684;28;20046;-43
2023/01/30 12:24:21;;;;;;;27.80;4.27;;;8.90;99.90;;;;;;5050701;28;20508;-38
2023/01/30 12:26:55;;;;;;;16.52;3.40;;;8.90;99.90;;;;;;5013532;28;20026;-39
2023/01/30 12:29:40;;;;;;;12.07;1.75;;;8.90;99.90;;;;;;5013279;28;20036;-41
2023/01/30 12:32:16;;;;;;;17.73;2.78;;;9.00;99.90;;;;;;5013536;28;20022;-37
2023/01/30 12:34:46;;;;;;;27.30;3.40;;;9.00;99.90;;;;;;5013455;28;20018;-40
2023/01/30 12:37:38;;;;;;;25.42;2.97;;;9.00;99.90;;;;;;5013617;28;20021;-35
2023/01/30 12:40:03;;;;;;;9.57;1.95;;;9.00;99.90;;;;;;5029087;28;20040;-34
2023/01/30 12:43:07;;;;;;;26.38;2.42;;;9.00;99.90;;;;;;5030369;28;20493;-37
2023/01/30 12:45:45;;;;;;;16.08;2.17;;;9.00;99.90;;;;;;5032826;28;20076;-36
2023/01/30 12:48:26;;;;;;;16.65;2.63;;;8.90;99.90;;;;;;5030356;28;20390;-40
2023/01/30 12:50:57;;;;;;;25.75;3.08;;;8.90;99.90;;;;;;5020412;28;20104;-38
2023/01/30 12:53:46;;;;;;;29.15;2.45;;;9.00;99.90;;;;;;5021233;28;20057;-36
2023/01/30 12:56:36;;;;;;;17.45;2.50;;;9.00;99.90;;;;;;5032865;28;20385;-37
2023/01/30 12:59:19;;;;;;;9.60;2.50;;;9.10;99.90;;;;;;5028390;28;20477;-38
2023/01/30 13:01:53;;;;;;;16.63;2.30;;;8.80;99.90;;;;;;5025172;28;20048;-41
2023/01/30 13:04:56;;;;;;;19.38;2.65;;;8.70;99.90;;;;;;5025311;28;20113;-41
2023/01/30 13:07:48;;;;;;;19.10;2.55;;;8.70;99.90;;;;;;5013023;28;20394;-43
2023/01/30 13:10:18;;;;;;;18.67;2.63;;;8.60;99.90;;;;;;5013078;28;20044;-43
2023/01/30 13:13:06;;;;;;;24.20;4.50;;;8.60;99.90;;;;;;5012919;28;20057;-42
2023/01/30 13:15:44;;;;;;;19.98;3.78;;;8.60;99.90;;;;;;5012995;28;20386;-47
2023/01/30 13:18:36;;;;;;;;;;;8.50;99.90;;;;;;5014289;28;20038;-45
2023/01/30 13:21:04;;;;;;;22.17;3.45;;;8.50;99.90;;;;;;5016161;28;19917;-40
2023/01/30 13:23:55;;;;;;;22.00;3.35;;;8.60;99.90;;;;;;5018803;28;20034;-46
2023/01/30 13:26:26;;;;;;;16.95;2.03;;;8.50;99.90;;;;;;5018838;28;20030;-41